To NAV CANADA Home Page Login to a new session Search on AWWS site Disclaimer Vers la page française équivalente Tips FAQ What's new on the site To the Forecasts and Observations / NOTAM section To "File a Flight Plan" website Publications and other links Update of the User's profile FIC Telephone Numbers My Weather Data Folder Route Weather Data Regional Weather Data Local Weather Data To the Forecasts and Observations / NOTAM section
Request Generated 10/19/2018 at 16:01:28 UTC . Weather information available at that time is displayed.

METAR/TAF

PORT HARDY/BC    

METAR CYZT 191500Z VRB02KT 20SM SKC 04/04 A3023 RMK SLP239=
METAR CYZT 191400Z 21002KT 15SM FEW200 04/04 A3022 RMK CI1 CI TR SLP236=
METAR CYZT 191300Z 23006KT 15SM SKC 06/05 A3021 RMK SLP231=

TAF CYZT 191238Z 1913/2001 16005KT P6SM FEW200
RMK NXT FCST BY 191900Z=
Your time UTC time
Weather data provided by Environment Canada and NAV CANADA